createdAt,value
2023-04-29T00:01:27.569Z,49.55
2023-04-29T00:03:54.859Z,49.75
2023-04-29T00:06:22.615Z,49.57
2023-04-29T00:08:49.930Z,49.88
2023-04-29T00:11:16.937Z,49.90
2023-04-29T00:13:44.081Z,50.18
2023-04-29T00:16:11.310Z,50.45
2023-04-29T00:18:38.457Z,50.85
2023-04-29T00:21:06.092Z,50.56
2023-04-29T00:23:34.367Z,51.04
2023-04-29T00:26:01.589Z,51.23
2023-04-29T00:28:28.617Z,51.15
2023-04-29T00:30:56.265Z,50.95
2023-04-29T00:33:23.600Z,51.44
2023-04-29T00:35:50.926Z,51.68
2023-04-29T00:38:17.958Z,52.21
2023-04-29T00:40:45.394Z,51.96
2023-04-29T00:43:12.799Z,52.00
2023-04-29T00:45:40.267Z,51.71
2023-04-29T00:48:08.032Z,52.25
2023-04-29T00:50:36.793Z,52.32
2023-04-29T00:53:04.483Z,52.53
2023-04-29T00:55:32.927Z,53.25
2023-04-29T00:58:00.742Z,52.70
2023-04-29T01:00:28.497Z,53.21
2023-04-29T01:02:57.192Z,53.12
2023-04-29T01:05:25.174Z,53.10
2023-04-29T01:08:28.542Z,53.44
2023-04-29T01:11:12.982Z,53.64
2023-04-29T01:14:00.701Z,53.44
2023-04-29T01:16:49.592Z,53.27
2023-04-29T01:19:47.753Z,53.41
2023-04-29T01:22:17.660Z,53.76
2023-04-29T01:24:44.971Z,53.59
2023-04-29T01:27:54.217Z,53.43
2023-04-29T01:31:04.799Z,53.79
2023-04-29T01:33:39.537Z,54.23
2023-04-29T01:36:29.062Z,53.83
2023-04-29T01:39:37.249Z,53.95
2023-04-29T01:42:17.652Z,53.66
2023-04-29T01:44:46.717Z,53.71
2023-04-29T01:47:14.833Z,53.61
2023-04-29T01:49:41.812Z,53.49
2023-04-29T01:52:08.804Z,53.50
2023-04-29T01:54:36.536Z,53.71
2023-04-29T01:57:03.877Z,54.30
2023-04-29T01:59:31.718Z,53.64
2023-04-29T02:01:59.047Z,53.43
2023-04-29T02:04:27.851Z,53.77
2023-04-29T02:06:54.926Z,53.62
2023-04-29T02:09:21.901Z,53.79
2023-04-29T02:11:48.898Z,54.09
2023-04-29T02:14:15.946Z,53.81
2023-04-29T02:16:46.083Z,53.80
2023-04-29T02:23:23.028Z,54.26
2023-04-29T02:25:50.020Z,54.29
2023-04-29T02:28:17.868Z,53.94
2023-04-29T02:30:45.242Z,54.28
2023-04-29T02:33:12.377Z,53.78
2023-04-29T02:35:39.394Z,54.02
2023-04-29T02:38:06.366Z,54.25
2023-04-29T02:40:33.416Z,53.96
2023-04-29T02:43:01.614Z,53.93
2023-04-29T02:45:28.582Z,53.70
2023-04-29T02:47:55.629Z,53.52
2023-04-29T02:50:22.656Z,53.75
2023-04-29T02:52:49.625Z,54.26
2023-04-29T02:55:17.174Z,54.29
2023-04-29T02:57:44.540Z,54.52
2023-04-29T03:00:12.007Z,54.48
2023-04-29T03:02:39.258Z,54.43
2023-04-29T03:05:06.738Z,54.54
2023-04-29T03:07:34.326Z,54.50
2023-04-29T03:10:01.689Z,53.86
2023-04-29T03:12:28.702Z,54.17
2023-04-29T03:14:55.677Z,54.43
2023-04-29T03:17:22.714Z,54.34
2023-04-29T03:19:51.326Z,54.22
2023-04-29T03:22:18.683Z,54.43
2023-04-29T03:24:45.801Z,54.40
2023-04-29T03:27:12.781Z,54.08
2023-04-29T03:29:39.802Z,53.94
2023-04-29T03:32:07.356Z,54.06
2023-04-29T03:34:34.423Z,54.09
2023-04-29T03:37:01.484Z,54.46
2023-04-29T03:39:32.397Z,54.19
2023-04-29T03:42:00.156Z,53.87
2023-04-29T03:44:29.044Z,54.12
2023-04-29T03:46:56.034Z,54.43
2023-04-29T03:49:23.802Z,54.20
2023-04-29T03:51:50.971Z,54.37
2023-04-29T03:54:18.236Z,54.26
2023-04-29T03:56:45.205Z,53.74
2023-04-29T03:59:12.201Z,53.68
2023-04-29T04:01:39.189Z,53.63
2023-04-29T04:04:06.416Z,52.56
2023-04-29T04:06:33.570Z,53.01
2023-04-29T04:09:00.599Z,52.57
2023-04-29T04:11:27.741Z,52.57
2023-04-29T04:13:54.772Z,52.23
2023-04-29T04:16:21.918Z,51.48
2023-04-29T04:18:49.324Z,51.21
2023-04-29T04:21:16.372Z,49.98
2023-04-29T04:23:44.165Z,48.54
2023-04-29T04:26:11.236Z,47.61
2023-04-29T04:28:38.420Z,46.51
2023-04-29T04:31:06.437Z,45.24
2023-04-29T04:33:34.579Z,43.98
2023-04-29T04:36:01.690Z,42.07
2023-04-29T04:38:28.696Z,40.73
2023-04-29T04:40:55.710Z,37.47
2023-04-29T04:43:22.931Z,35.60
2023-04-29T04:45:50.127Z,34.96
2023-04-29T04:48:17.105Z,35.84
2023-04-29T04:50:44.104Z,34.85
2023-04-29T04:53:11.257Z,35.00
2023-04-29T04:55:38.392Z,34.72
2023-04-29T04:58:05.448Z,33.99
2023-04-29T05:00:32.467Z,34.11
2023-04-29T05:02:59.652Z,33.51
2023-04-29T05:05:26.879Z,35.60
2023-04-29T05:07:53.886Z,35.55
2023-04-29T05:10:20.971Z,36.50
2023-04-29T05:12:48.264Z,37.77
2023-04-29T05:15:16.790Z,39.00
2023-04-29T05:17:43.837Z,39.98
2023-04-29T05:20:11.408Z,40.40
2023-04-29T05:22:38.458Z,39.85
2023-04-29T05:25:06.202Z,40.25
2023-04-29T05:27:33.235Z,40.76
2023-04-29T05:30:00.264Z,39.87
2023-04-29T05:32:27.449Z,38.31
2023-04-29T05:34:54.456Z,34.68
2023-04-29T05:37:21.468Z,31.42
2023-04-29T05:39:48.450Z,29.08
2023-04-29T05:42:15.793Z,26.93
2023-04-29T05:44:42.773Z,25.76
2023-04-29T05:47:09.865Z,25.06
2023-04-29T05:49:36.931Z,24.81
2023-04-29T05:52:06.513Z,25.67
2023-04-29T05:54:34.580Z,25.58
2023-04-29T05:57:02.563Z,24.31
2023-04-29T05:59:33.443Z,23.34
2023-04-29T06:02:01.461Z,24.47
2023-04-29T06:04:28.712Z,23.59
2023-04-29T06:06:57.548Z,22.55
2023-04-29T06:09:28.276Z,21.81
2023-04-29T06:11:56.249Z,20.93
2023-04-29T06:14:23.667Z,21.49
2023-04-29T06:16:50.797Z,21.68
2023-04-29T06:19:17.889Z,20.65
2023-04-29T06:21:44.913Z,20.13
2023-04-29T06:24:11.874Z,19.13
2023-04-29T06:26:38.930Z,19.35
2023-04-29T06:29:06.001Z,20.21
2023-04-29T06:31:33.120Z,19.71
2023-04-29T06:34:00.227Z,19.52
2023-04-29T06:36:28.366Z,18.99
2023-04-29T06:38:55.688Z,18.38
2023-04-29T06:41:23.766Z,18.79
2023-04-29T06:43:51.282Z,17.44
2023-04-29T06:46:18.329Z,18.60
2023-04-29T06:48:45.967Z,17.60
2023-04-29T06:51:13.401Z,17.95
2023-04-29T06:53:40.714Z,17.61
2023-04-29T06:56:08.088Z,17.91
2023-04-29T06:58:35.093Z,18.59
2023-04-29T07:01:04.287Z,19.71
2023-04-29T07:03:31.449Z,20.62
2023-04-29T07:05:58.518Z,21.19
2023-04-29T07:08:25.613Z,21.26
2023-04-29T07:10:57.292Z,20.88
2023-04-29T07:13:27.450Z,19.48
2023-04-29T07:15:54.517Z,19.32
2023-04-29T07:18:21.629Z,19.69
2023-04-29T07:20:49.670Z,20.49
2023-04-29T07:23:16.813Z,20.40
2023-04-29T07:25:43.836Z,21.13
2023-04-29T07:28:11.009Z,21.32
2023-04-29T07:30:38.676Z,21.97
2023-04-29T07:33:05.765Z,22.98
2023-04-29T07:35:33.265Z,23.46
2023-04-29T07:38:00.302Z,23.12
2023-04-29T07:40:27.338Z,23.32
2023-04-29T07:42:54.375Z,23.88
2023-04-29T07:45:21.406Z,25.32
2023-04-29T07:47:48.439Z,24.46
2023-04-29T07:50:16.328Z,24.88
2023-04-29T07:52:43.338Z,24.90
2023-04-29T07:55:10.319Z,25.31
2023-04-29T07:57:37.475Z,24.27
2023-04-29T08:00:05.142Z,23.66
2023-04-29T08:02:32.805Z,23.02
2023-04-29T08:05:01.120Z,23.47
2023-04-29T08:07:28.618Z,23.47
2023-04-29T08:09:55.838Z,24.75
2023-04-29T08:12:22.820Z,24.37
2023-04-29T08:14:49.783Z,24.06
2023-04-29T08:17:16.754Z,24.90
2023-04-29T08:19:44.594Z,24.25
2023-04-29T08:22:12.343Z,23.32
2023-04-29T08:24:39.383Z,24.50
2023-04-29T08:27:06.746Z,24.58
2023-04-29T08:29:34.412Z,23.57
2023-04-29T08:32:01.731Z,25.08
2023-04-29T08:34:28.904Z,24.59
2023-04-29T08:36:57.614Z,24.17
2023-04-29T08:39:25.407Z,24.19
2023-04-29T08:41:53.595Z,24.41
2023-04-29T08:44:21.597Z,25.01
2023-04-29T08:46:49.326Z,25.58
2023-04-29T08:49:16.340Z,24.77
2023-04-29T08:51:43.319Z,25.57
2023-04-29T08:54:11.780Z,25.01
2023-04-29T08:56:39.591Z,25.19
2023-04-29T08:59:10.680Z,26.00
2023-04-29T09:01:42.286Z,25.76
2023-04-29T09:04:18.715Z,26.35
2023-04-29T09:06:46.878Z,26.52
2023-04-29T09:09:15.399Z,26.27
2023-04-29T09:11:42.402Z,26.60
2023-04-29T09:14:09.584Z,26.31
2023-04-29T09:16:38.266Z,26.97
2023-04-29T09:19:05.544Z,27.34
2023-04-29T09:21:32.580Z,27.12
2023-04-29T09:24:02.412Z,26.88
2023-04-29T09:26:42.982Z,27.69
2023-04-29T09:29:18.433Z,28.52
2023-04-29T09:31:46.813Z,29.44
2023-04-29T09:34:14.752Z,29.07
2023-04-29T09:36:47.956Z,29.60
2023-04-29T09:39:21.229Z,29.44
2023-04-29T09:41:54.144Z,29.10
2023-04-29T09:44:32.225Z,29.21
2023-04-29T09:47:10.223Z,28.39
2023-04-29T09:49:43.271Z,28.24
2023-04-29T09:52:13.005Z,27.87
2023-04-29T09:54:42.091Z,27.98
2023-04-29T09:57:11.417Z,27.47
2023-04-29T09:59:41.564Z,27.58
2023-04-29T10:02:20.840Z,27.25
2023-04-29T10:04:58.303Z,27.94
2023-04-29T10:07:28.131Z,28.07
2023-04-29T10:09:56.138Z,27.78
2023-04-29T10:12:24.020Z,27.77
2023-04-29T10:15:13.889Z,27.71
2023-04-29T10:17:52.648Z,27.93
2023-04-29T10:20:25.234Z,28.30
2023-04-29T10:22:56.718Z,28.15
2023-04-29T10:25:26.276Z,28.15
2023-04-29T10:27:55.288Z,28.02
2023-04-29T10:30:22.738Z,27.89
2023-04-29T10:32:52.809Z,27.14
2023-04-29T10:35:25.558Z,26.82
2023-04-29T10:37:54.277Z,28.14
2023-04-29T10:40:58.258Z,27.69
2023-04-29T10:43:26.551Z,27.69
2023-04-29T10:46:27.056Z,28.33
2023-04-29T10:49:02.644Z,27.50
2023-04-29T10:51:44.993Z,27.59
2023-04-29T10:54:17.598Z,28.47
2023-04-29T10:56:50.293Z,28.88
2023-04-29T10:59:43.088Z,29.44
2023-04-29T11:02:12.926Z,29.17
2023-04-29T11:05:10.182Z,29.74
2023-04-29T11:07:37.361Z,29.76
2023-04-29T11:10:07.356Z,30.04
2023-04-29T11:12:34.350Z,30.36
2023-04-29T11:15:05.063Z,30.78
2023-04-29T11:17:38.713Z,30.78
2023-04-29T11:20:18.520Z,30.19
2023-04-29T11:22:52.251Z,30.37
2023-04-29T11:25:19.274Z,30.43
2023-04-29T11:27:49.165Z,30.98
2023-04-29T11:30:16.987Z,31.43
2023-04-29T11:32:44.132Z,30.82
2023-04-29T11:35:16.977Z,30.86
2023-04-29T11:37:46.687Z,31.52
2023-04-29T11:40:15.412Z,31.56
2023-04-29T11:42:46.661Z,31.83
2023-04-29T11:45:15.235Z,31.84
2023-04-29T11:47:46.970Z,32.55
2023-04-29T11:50:17.858Z,31.89
2023-04-29T11:52:47.994Z,32.58
2023-04-29T11:55:15.185Z,32.49
2023-04-29T11:57:42.726Z,32.14
2023-04-29T12:00:14.448Z,32.35
2023-04-29T12:02:46.546Z,32.74
2023-04-29T12:05:16.120Z,32.52
2023-04-29T12:07:43.803Z,32.03
2023-04-29T12:10:12.371Z,31.75
2023-04-29T12:12:47.439Z,31.64
2023-04-29T12:15:15.127Z,32.13
2023-04-29T12:17:43.621Z,32.02
2023-04-29T12:20:12.044Z,32.11
2023-04-29T12:22:39.584Z,31.29
2023-04-29T12:25:07.910Z,31.46
2023-04-29T12:27:37.178Z,31.91
2023-04-29T12:30:09.594Z,31.74
2023-04-29T12:32:37.562Z,30.60
2023-04-29T12:35:05.428Z,31.43
2023-04-29T12:37:33.605Z,31.35
2023-04-29T12:40:00.741Z,31.89
2023-04-29T12:42:34.243Z,32.20
2023-04-29T12:45:01.279Z,31.83
2023-04-29T12:47:37.262Z,31.60
2023-04-29T12:50:06.937Z,31.58
2023-04-29T12:52:36.472Z,31.63
2023-04-29T12:55:04.720Z,31.32
2023-04-29T12:57:31.807Z,31.80
2023-04-29T12:59:58.785Z,32.23
2023-04-29T13:04:53.484Z,31.74
2023-04-29T13:07:21.087Z,32.03
2023-04-29T13:09:48.055Z,32.36
2023-04-29T13:12:15.048Z,32.57
2023-04-29T13:14:42.035Z,32.16
2023-04-29T13:17:10.604Z,32.18
2023-04-29T13:19:50.232Z,31.44
2023-04-29T13:22:18.317Z,31.66
2023-04-29T13:24:45.975Z,32.52
2023-04-29T13:27:13.156Z,32.35
2023-04-29T13:29:40.167Z,32.33
2023-04-29T13:32:08.275Z,32.23
2023-04-29T13:34:35.337Z,32.22
2023-04-29T13:37:02.523Z,32.34
2023-04-29T13:39:29.547Z,32.27
2023-04-29T13:41:59.288Z,32.32
2023-04-29T13:44:33.274Z,32.72
2023-04-29T13:47:18.192Z,32.78
2023-04-29T13:55:25.779Z,32.68
2023-04-29T13:58:36.336Z,33.04
2023-04-29T14:00:57.027Z,33.03
2023-04-29T14:03:13.087Z,32.88
2023-04-29T14:05:41.499Z,33.24
2023-04-29T14:08:08.501Z,33.58
2023-04-29T14:10:36.954Z,33.42
2023-04-29T14:13:03.968Z,33.64
2023-04-29T14:15:31.200Z,33.08
2023-04-29T14:17:58.363Z,32.96
2023-04-29T14:20:25.420Z,33.33
2023-04-29T14:22:53.055Z,33.85
2023-04-29T14:25:20.107Z,33.77
2023-04-29T14:27:49.184Z,34.17
2023-04-29T14:30:16.246Z,34.06
2023-04-29T14:32:43.411Z,34.06
2023-04-29T14:35:10.590Z,33.20
2023-04-29T14:37:37.625Z,33.70
2023-04-29T14:40:06.382Z,33.80
2023-04-29T14:42:33.419Z,34.31
2023-04-29T14:45:00.527Z,34.48
2023-04-29T14:47:29.044Z,34.55
2023-04-29T14:49:56.450Z,34.53
2023-04-29T14:52:23.500Z,34.47
2023-04-29T14:54:51.261Z,34.51
2023-04-29T14:57:18.467Z,35.00
2023-04-29T14:59:45.502Z,35.10
2023-04-29T15:02:12.706Z,35.25
2023-04-29T15:04:45.520Z,35.08
2023-04-29T15:07:13.897Z,34.82
2023-04-29T15:09:41.347Z,34.55
2023-04-29T15:12:09.646Z,34.31
2023-04-29T15:14:37.069Z,34.83
2023-04-29T15:17:04.166Z,34.88
2023-04-29T15:19:31.150Z,34.70
2023-04-29T15:21:58.133Z,34.75
2023-04-29T15:24:25.165Z,34.68
2023-04-29T15:26:53.311Z,34.89
2023-04-29T15:29:20.595Z,34.85
2023-04-29T15:31:47.724Z,35.30
2023-04-29T15:34:14.757Z,35.34
2023-04-29T15:36:42.401Z,35.11
2023-04-29T15:39:11.082Z,35.58
2023-04-29T15:41:39.099Z,35.32
2023-04-29T15:44:06.624Z,35.48
2023-04-29T15:46:33.803Z,35.40
2023-04-29T15:49:01.172Z,35.17
2023-04-29T15:51:28.161Z,35.38
2023-04-29T15:53:55.159Z,35.49
2023-04-29T15:56:22.191Z,35.22
2023-04-29T15:58:49.214Z,34.94
2023-04-29T16:01:16.309Z,34.89
2023-04-29T16:03:43.381Z,35.22
2023-04-29T16:06:10.640Z,35.36
2023-04-29T16:08:37.648Z,35.54
2023-04-29T16:11:04.685Z,35.69
2023-04-29T16:13:31.958Z,36.04
2023-04-29T16:15:59.816Z,36.02
2023-04-29T16:18:27.454Z,35.81
2023-04-29T16:20:54.496Z,36.06
2023-04-29T16:23:21.840Z,36.53
2023-04-29T16:25:49.070Z,36.56
2023-04-29T16:28:16.332Z,36.95
2023-04-29T16:30:43.749Z,36.89
2023-04-29T16:33:10.770Z,36.81
2023-04-29T16:35:37.840Z,36.88
2023-04-29T16:38:04.832Z,37.27
2023-04-29T16:40:31.910Z,37.03
2023-04-29T16:42:58.960Z,37.65
2023-04-29T16:45:26.390Z,37.57
2023-04-29T16:47:54.740Z,37.15
2023-04-29T16:50:21.974Z,37.44
2023-04-29T16:52:49.272Z,37.77
2023-04-29T16:55:16.356Z,38.01
2023-04-29T16:57:43.813Z,37.84
2023-04-29T17:00:12.155Z,37.74
2023-04-29T17:02:40.488Z,37.92
2023-04-29T17:05:09.086Z,37.93
2023-04-29T17:07:36.274Z,37.92
2023-04-29T17:10:04.407Z,38.12
2023-04-29T17:12:31.448Z,37.98
2023-04-29T17:14:58.549Z,38.38
2023-04-29T17:17:25.650Z,39.04
2023-04-29T17:19:52.959Z,39.65
2023-04-29T17:22:20.476Z,40.82
2023-04-29T17:24:48.626Z,41.58
2023-04-29T17:27:15.662Z,42.62
2023-04-29T17:29:42.728Z,42.97
2023-04-29T17:32:15.333Z,43.40
2023-04-29T17:34:42.453Z,43.62
2023-04-29T17:37:09.559Z,44.02
2023-04-29T17:39:36.577Z,44.58
2023-04-29T17:42:03.748Z,44.80
2023-04-29T17:44:30.801Z,44.74
2023-04-29T17:46:57.771Z,44.65
2023-04-29T17:49:25.200Z,45.15
2023-04-29T17:51:52.650Z,45.41
2023-04-29T17:54:19.680Z,45.80
2023-04-29T17:56:46.746Z,45.70
2023-04-29T17:59:13.717Z,45.64
2023-04-29T18:01:41.699Z,45.87
2023-04-29T18:04:08.932Z,46.23
2023-04-29T18:06:36.174Z,46.33
2023-04-29T18:09:04.693Z,46.31
2023-04-29T18:11:32.093Z,46.52
2023-04-29T18:13:59.267Z,46.21
2023-04-29T18:16:26.341Z,46.47
2023-04-29T18:18:56.020Z,46.16
2023-04-29T18:21:26.069Z,46.57
2023-04-29T18:23:56.420Z,46.67
2023-04-29T18:26:24.608Z,47.00
2023-04-29T18:28:51.733Z,46.80
2023-04-29T18:31:20.132Z,47.10
2023-04-29T18:33:47.245Z,47.43
2023-04-29T18:36:14.449Z,47.50
2023-04-29T18:38:41.659Z,47.46
2023-04-29T18:41:09.081Z,47.43
2023-04-29T18:43:36.721Z,47.33
2023-04-29T18:46:03.916Z,47.89
2023-04-29T18:48:31.498Z,47.81
2023-04-29T18:51:00.410Z,47.82
2023-04-29T18:53:27.445Z,48.10
2023-04-29T18:55:54.700Z,46.95
2023-04-29T18:58:22.150Z,47.59
2023-04-29T19:00:49.261Z,47.87
2023-04-29T19:03:16.558Z,48.01
2023-04-29T19:05:43.815Z,48.03
2023-04-29T19:08:10.908Z,48.51
2023-04-29T19:10:38.035Z,48.42
2023-04-29T19:13:05.069Z,48.36
2023-04-29T19:15:32.319Z,48.21
2023-04-29T19:17:59.422Z,48.27
2023-04-29T19:20:27.039Z,48.26
2023-04-29T19:22:54.113Z,48.65
2023-04-29T19:25:21.761Z,48.78
2023-04-29T19:27:49.180Z,48.97
2023-04-29T19:30:16.662Z,48.93
2023-04-29T19:32:46.473Z,49.42
2023-04-29T19:35:13.645Z,49.36
2023-04-29T19:37:41.121Z,49.29
2023-04-29T19:40:10.989Z,49.68
2023-04-29T19:42:39.188Z,49.57
2023-04-29T19:45:08.165Z,49.32
2023-04-29T19:47:35.317Z,49.75
2023-04-29T19:50:02.732Z,50.10
2023-04-29T19:52:29.915Z,50.17
2023-04-29T19:54:57.045Z,50.08
2023-04-29T19:57:24.091Z,50.09
2023-04-29T19:59:51.335Z,50.44
2023-04-29T20:02:19.168Z,50.74
2023-04-29T20:04:46.453Z,50.37
2023-04-29T20:07:13.436Z,50.95
2023-04-29T20:09:40.488Z,50.85
2023-04-29T20:12:07.541Z,50.96
2023-04-29T20:14:34.622Z,51.09
2023-04-29T20:17:01.906Z,51.38
2023-04-29T20:19:30.974Z,51.34
2023-04-29T20:21:58.359Z,51.92
2023-04-29T20:24:25.355Z,51.93
2023-04-29T20:26:52.364Z,51.82
2023-04-29T20:29:19.491Z,51.78
2023-04-29T20:31:46.626Z,51.75
2023-04-29T20:34:13.721Z,52.03
2023-04-29T20:36:40.762Z,51.99
2023-04-29T20:39:09.049Z,52.16
2023-04-29T20:41:36.077Z,51.97
2023-04-29T20:44:03.307Z,52.46
2023-04-29T20:46:30.423Z,52.92
2023-04-29T20:48:57.621Z,53.03
2023-04-29T20:51:24.823Z,52.83
2023-04-29T20:53:52.024Z,52.96
2023-04-29T20:56:19.085Z,53.23
2023-04-29T20:58:46.077Z,53.22
2023-04-29T21:01:13.078Z,53.51
2023-04-29T21:03:40.618Z,53.88
2023-04-29T21:06:07.817Z,54.21
2023-04-29T21:08:34.943Z,53.88
2023-04-29T21:11:01.986Z,54.63
2023-04-29T21:13:28.955Z,54.85
2023-04-29T21:15:55.952Z,55.50
2023-04-29T21:18:23.265Z,55.59
2023-04-29T21:20:51.211Z,55.45
2023-04-29T21:23:18.214Z,56.05
2023-04-29T21:25:45.286Z,56.06
2023-04-29T21:28:12.828Z,56.86
2023-04-29T21:30:40.954Z,57.42
2023-04-29T21:33:07.996Z,57.45
2023-04-29T21:35:35.126Z,57.56
2023-04-29T21:38:02.118Z,57.99
2023-04-29T21:40:29.189Z,57.88
2023-04-29T21:42:58.080Z,58.27
2023-04-29T21:45:25.081Z,59.18
2023-04-29T21:47:52.720Z,59.61
2023-04-29T21:50:19.962Z,59.65
2023-04-29T21:52:46.998Z,60.23
2023-04-29T21:55:14.014Z,60.22
2023-04-29T21:57:44.915Z,60.67
2023-04-29T22:00:32.969Z,60.99
2023-04-29T22:03:04.353Z,61.27
2023-04-29T22:05:31.658Z,61.76
2023-04-29T22:08:00.706Z,62.25
2023-04-29T22:10:28.008Z,62.21
2023-04-29T22:12:55.998Z,62.09
2023-04-29T22:15:28.709Z,62.19
2023-04-29T22:17:57.317Z,62.44
2023-04-29T22:20:25.255Z,61.88
2023-04-29T22:22:52.504Z,62.00
2023-04-29T22:25:21.755Z,62.16
2023-04-29T22:27:50.409Z,62.16
2023-04-29T22:30:17.944Z,61.99
2023-04-29T22:32:45.595Z,62.23
2023-04-29T22:35:12.959Z,62.36
2023-04-29T22:37:40.976Z,62.24
2023-04-29T22:40:08.799Z,62.30
2023-04-29T22:42:35.827Z,62.75
2023-04-29T22:45:02.837Z,62.63
2023-04-29T22:47:30.004Z,62.60
2023-04-29T22:49:57.002Z,63.10
2023-04-29T22:52:25.861Z,62.77
2023-04-29T22:54:53.050Z,62.73
2023-04-29T22:57:20.046Z,63.49
2023-04-29T22:59:47.197Z,64.42
2023-04-29T23:02:14.362Z,65.12
2023-04-29T23:04:41.377Z,66.58
2023-04-29T23:07:08.393Z,67.49
2023-04-29T23:09:35.428Z,68.85
2023-04-29T23:12:02.794Z,71.35
2023-04-29T23:14:29.957Z,72.67
2023-04-29T23:16:57.069Z,73.05
2023-04-29T23:19:24.538Z,74.08
2023-04-29T23:21:51.505Z,74.69
2023-04-29T23:24:18.462Z,75.43
2023-04-29T23:26:45.422Z,76.71
2023-04-29T23:29:12.393Z,77.22
2023-04-29T23:31:39.423Z,76.99
2023-04-29T23:34:07.878Z,78.65
2023-04-29T23:36:36.441Z,79.34
2023-04-29T23:39:03.448Z,80.41
2023-04-29T23:41:31.877Z,79.60
2023-04-29T23:44:02.453Z,79.90
2023-04-29T23:46:30.787Z,79.65
2023-04-29T23:48:57.838Z,80.58
2023-04-29T23:51:26.294Z,80.88
2023-04-29T23:53:53.330Z,81.75
2023-04-29T23:56:20.333Z,83.05
2023-04-29T23:58:47.293Z,83.48
